Alan P Hall — WDG4692 — position and weather

sailwx.info

Track history (hours):
 
Tides and Currents Weather Stations Pressure Air Temp Water Temp Dewpoint Dewpoint Depression Visibility Wind Speed Wind Dir Waves Ship Positions

Alan P Hall

Owner: Amherst Madison,Inc 2 Port Amherst Drive Charleston,WV 25306, Charleston, WV. More information available from US FCC via Universal Licensing System and Coast Guard Vessel Documentation Center.

Last reported at 2015-May-26 22:06 UTC. Time now 2015-May-28 20:05 UTC.
Position N 38°42' W 083°47'.

Length 51 m; draft 2.5 m.

Type: Towing. MMSI: 367539160.

Date/timePositionNaut miles runAvg speedWind from/ knotsBaromVisibWave heightAir tempDewpointWater temp
2015-May-26 22:06N 38°42' W 083°47'20 3.3
2015-May-26 16:05N 38°48' W 084°12'2 3.3
2015-May-26 15:25N 38°49' W 084°14'3 3.0
2015-May-26 14:33N 38°52' W 084°14'0 0.4
2015-May-26 13:14N 38°52' W 084°14'0 0.1
2015-May-26 12:32N 38°52' W 084°14'0 0.0
2015-May-26 11:25N 38°52' W 084°14'0 0.1
2015-May-26 10:27N 38°53' W 084°14'0 0.0
2015-May-26 09:32N 38°53' W 084°14'0 0.0
2015-May-26 08:32N 38°53' W 084°14'0 0.0
2015-May-26 07:31N 38°53' W 084°14'0 0.0
2015-May-26 06:32N 38°53' W 084°14'1 1.0
2015-May-26 05:33N 38°52' W 084°14'2 1.5
2015-May-26 04:31N 38°50' W 084°14'1 1.0
2015-May-26 03:29N 38°51' W 084°14'1 1.5
2015-May-26 02:31N 38°53' W 084°14'1 1.1
2015-May-26 01:33N 38°52' W 084°14'4 4.4
2015-May-26 00:33N 38°48' W 084°11'2 2.2
2015-May-25 23:32N 38°47' W 084°08'10 4.4
2015-May-25 21:16N 38°46' W 083°56'  
Track history (hours):
 
Tides and Currents Weather Stations Pressure Air Temp Water Temp Dewpoint Dewpoint Depression Visibility Wind Speed Wind Dir Waves Ship Positions

Alan P Hall

Owner: Amherst Madison,Inc 2 Port Amherst Drive Charleston,WV 25306, Charleston, WV. More information available from US FCC via Universal Licensing System and Coast Guard Vessel Documentation Center.

Last reported at 2015-May-26 22:06 UTC. Time now 2015-May-28 20:05 UTC.
Position N 38°42' W 083°47'.

Length 51 m; draft 2.5 m.

Type: Towing. MMSI: 367539160.

Date/timePositionNaut miles runAvg speedWind from/ knotsBaromVisibWave heightAir tempDewpointWater temp
2015-May-26 22:06N 38°42' W 083°47'20 3.3
2015-May-26 16:05N 38°48' W 084°12'2 3.3
2015-May-26 15:25N 38°49' W 084°14'3 3.0
2015-May-26 14:33N 38°52' W 084°14'0 0.4
2015-May-26 13:14N 38°52' W 084°14'0 0.1
2015-May-26 12:32N 38°52' W 084°14'0 0.0
2015-May-26 11:25N 38°52' W 084°14'0 0.1
2015-May-26 10:27N 38°53' W 084°14'0 0.0
2015-May-26 09:32N 38°53' W 084°14'0 0.0
2015-May-26 08:32N 38°53' W 084°14'0 0.0
2015-May-26 07:31N 38°53' W 084°14'0 0.0
2015-May-26 06:32N 38°53' W 084°14'1 1.0
2015-May-26 05:33N 38°52' W 084°14'2 1.5
2015-May-26 04:31N 38°50' W 084°14'1 1.0
2015-May-26 03:29N 38°51' W 084°14'1 1.5
2015-May-26 02:31N 38°53' W 084°14'1 1.1
2015-May-26 01:33N 38°52' W 084°14'4 4.4
2015-May-26 00:33N 38°48' W 084°11'2 2.2
2015-May-25 23:32N 38°47' W 084°08'10 4.4
2015-May-25 21:16N 38°46' W 083°56'  

Dump ship's entire track history